Time;durP1;ratioP1;P1;durP2;ratioP2;P2;SDS_P1;SDS_P2;PMS_P1;PMS_P2;Temp;Humidity;BMP_temperature;BMP_pressure;BME280_temperature;BME280_humidity;BME280_pressure;Samples;Min_cycle;Max_cycle;Signal;HPM_P1;HPM_P2
2022/03/07 00:01:25;;;;;;;5.78;2.42;;;;;;;;;;6056643;23;20044;-56
2022/03/07 00:03:52;;;;;;;6.73;2.40;;;;;;;;;;6092209;23;20040;-61
2022/03/07 00:06:19;;;;;;;7.70;2.45;;;;;;;;;;6052334;23;20128;-60
2022/03/07 00:08:48;;;;;;;7.70;2.03;;;;;;;;;;6105199;23;20044;-65
2022/03/07 00:11:15;;;;;;;5.38;2.03;;;;;;;;;;6052200;23;20040;-57
2022/03/07 00:13:42;;;;;;;5.47;2.28;;;;;;;;;;6057415;23;20098;-62
2022/03/07 00:16:11;;;;;;;5.22;2.30;;;;;;;;;;6052621;23;20055;-59
2022/03/07 00:18:37;;;;;;;8.40;2.33;;;;;;;;;;6055209;23;20135;-61
2022/03/07 00:21:05;;;;;;;6.15;2.40;;;;;;;;;;6052443;23;20032;-59
2022/03/07 00:23:32;;;;;;;6.47;1.90;;;;;;;;;;6056489;23;20067;-57
2022/03/07 00:25:58;;;;;;;4.97;2.05;;;;;;;;;;6052809;23;20044;-57
2022/03/07 00:28:25;;;;;;;8.00;2.47;;;;;;;;;;6056694;23;20067;-58
2022/03/07 00:30:51;;;;;;;5.80;2.15;;;;;;;;;;6051770;23;20037;-62
2022/03/07 00:33:19;;;;;;;5.57;2.40;;;;;;;;;;6057405;23;20033;-57
2022/03/07 00:35:46;;;;;;;5.23;2.13;;;;;;;;;;6052711;23;20090;-58
2022/03/07 00:38:13;;;;;;;5.75;2.15;;;;;;;;;;6058114;23;20283;-57
2022/03/07 00:40:39;;;;;;;6.20;2.33;;;;;;;;;;6053525;23;20040;-59
2022/03/07 00:43:07;;;;;;;6.50;2.20;;;;;;;;;;6056980;23;21477;-62
2022/03/07 00:45:34;;;;;;;4.82;2.10;;;;;;;;;;6057167;23;20045;-59
2022/03/07 00:48:00;;;;;;;4.53;2.10;;;;;;;;;;6052079;23;20056;-62
2022/03/07 00:50:28;;;;;;;3.58;1.70;;;;;;;;;;6056578;23;20063;-58
2022/03/07 00:52:55;;;;;;;3.73;1.70;;;;;;;;;;6053152;23;20036;-51
2022/03/07 00:55:24;;;;;;;5.75;1.92;;;;;;;;;;6057676;23;20044;-60
2022/03/07 00:57:51;;;;;;;5.70;1.80;;;;;;;;;;6052799;23;20040;-55
2022/03/07 01:00:17;;;;;;;7.75;2.50;;;;;;;;;;6056983;23;20067;-59
2022/03/07 01:02:44;;;;;;;4.07;2.05;;;;;;;;;;6055737;23;20094;-61
2022/03/07 01:05:11;;;;;;;4.68;1.75;;;;;;;;;;6109955;23;20044;-59
2022/03/07 01:07:39;;;;;;;6.35;1.80;;;;;;;;;;6106512;23;20044;-56
2022/03/07 01:10:06;;;;;;;6.67;2.37;;;;;;;;;;6112104;23;20090;-62
2022/03/07 01:12:33;;;;;;;4.22;2.13;;;;;;;;;;6060736;23;20283;-54
2022/03/07 01:14:59;;;;;;;4.18;2.03;;;;;;;;;;6062023;23;20040;-59
2022/03/07 01:17:26;;;;;;;7.88;2.42;;;;;;;;;;6057964;23;20116;-54
2022/03/07 01:19:53;;;;;;;6.75;1.92;;;;;;;;;;6084945;23;20047;-54
2022/03/07 01:22:20;;;;;;;5.82;2.03;;;;;;;;;;6081569;23;20048;-55
2022/03/07 01:24:51;;;;;;;7.05;2.40;;;;;;;;;;6073171;23;20040;-56
2022/03/07 01:27:18;;;;;;;4.70;1.90;;;;;;;;;;6060095;23;20039;-59
2022/03/07 01:29:44;;;;;;;5.43;2.33;;;;;;;;;;6059297;23;20048;-54
2022/03/07 01:32:12;;;;;;;6.60;2.38;;;;;;;;;;6060951;23;20040;-57
2022/03/07 01:34:42;;;;;;;4.93;2.10;;;;;;;;;;6076558;23;20056;-57
2022/03/07 01:37:08;;;;;;;6.32;2.28;;;;;;;;;;6085295;23;20040;-56
2022/03/07 01:39:34;;;;;;;6.88;2.33;;;;;;;;;;6104320;23;20094;-49
2022/03/07 01:42:03;;;;;;;4.05;2.00;;;;;;;;;;6061719;23;20060;-55
2022/03/07 01:44:31;;;;;;;6.03;2.17;;;;;;;;;;6105439;23;20039;-55
2022/03/07 01:46:58;;;;;;;7.03;2.28;;;;;;;;;;6060907;23;20036;-56
2022/03/07 01:49:25;;;;;;;7.57;2.22;;;;;;;;;;6066027;23;20089;-55
2022/03/07 01:51:54;;;;;;;7.88;2.47;;;;;;;;;;6085152;23;20070;-56
2022/03/07 01:54:22;;;;;;;4.85;2.15;;;;;;;;;;6055123;23;20044;-59
2022/03/07 01:56:50;;;;;;;3.50;1.88;;;;;;;;;;6085110;23;20101;-55
2022/03/07 01:59:19;;;;;;;5.25;2.40;;;;;;;;;;6076392;23;20040;-54
2022/03/07 02:01:46;;;;;;;4.47;2.13;;;;;;;;;;6061609;23;20040;-58
2022/03/07 02:04:14;;;;;;;6.55;2.17;;;;;;;;;;6057346;23;20040;-57
2022/03/07 02:06:41;;;;;;;5.63;2.20;;;;;;;;;;6111067;23;20036;-62
2022/03/07 02:09:08;;;;;;;6.78;2.42;;;;;;;;;;6057030;23;20032;-55
2022/03/07 02:11:35;;;;;;;8.57;2.42;;;;;;;;;;6109327;23;20040;-59
2022/03/07 02:14:10;;;;;;;4.72;2.08;;;;;;;;;;6109252;23;20032;-62
2022/03/07 02:16:38;;;;;;;8.95;2.20;;;;;;;;;;6108433;23;20032;-56
2022/03/07 02:19:05;;;;;;;6.80;1.95;;;;;;;;;;6085304;23;20067;-56
2022/03/07 02:21:33;;;;;;;7.18;2.45;;;;;;;;;;6060331;23;20032;-59
2022/03/07 02:24:01;;;;;;;6.43;2.20;;;;;;;;;;6110376;23;20102;-57
2022/03/07 02:26:28;;;;;;;4.82;2.00;;;;;;;;;;6106053;23;20098;-61
2022/03/07 02:28:54;;;;;;;9.75;2.33;;;;;;;;;;6061576;23;20043;-58
2022/03/07 02:31:21;;;;;;;6.35;2.35;;;;;;;;;;6057347;23;20111;-62
2022/03/07 02:33:51;;;;;;;7.47;2.22;;;;;;;;;;6062558;23;20058;-60
2022/03/07 02:36:18;;;;;;;6.10;2.17;;;;;;;;;;6070133;23;20036;-62
2022/03/07 02:38:45;;;;;;;8.20;2.13;;;;;;;;;;6088857;23;20067;-62
2022/03/07 02:41:13;;;;;;;5.03;2.40;;;;;;;;;;6074539;23;20062;-56
2022/03/07 02:43:40;;;;;;;5.55;2.25;;;;;;;;;;6060004;23;20042;-55
2022/03/07 02:46:06;;;;;;;7.68;2.55;;;;;;;;;;6105203;23;20082;-57
2022/03/07 02:48:33;;;;;;;6.47;1.92;;;;;;;;;;6110480;23;20036;-56
2022/03/07 02:50:59;;;;;;;4.35;2.30;;;;;;;;;;6107015;23;20036;-62
2022/03/07 02:53:26;;;;;;;6.80;2.08;;;;;;;;;;6063231;23;20036;-58
2022/03/07 02:55:55;;;;;;;7.95;2.13;;;;;;;;;;6106602;23;20123;-56
2022/03/07 02:58:21;;;;;;;;;;;;;;;;;;6063017;23;20032;-53
2022/03/07 03:00:49;;;;;;;7.40;1.80;;;;;;;;;;6060316;23;19916;-51
2022/03/07 03:03:16;;;;;;;8.27;2.15;;;;;;;;;;6106151;23;20033;-56
2022/03/07 03:05:45;;;;;;;6.10;2.38;;;;;;;;;;6087855;23;20105;-55
2022/03/07 03:08:11;;;;;;;;;;;;;;;;;;6107993;23;20040;-54
2022/03/07 03:10:39;;;;;;;5.38;2.08;;;;;;;;;;6087070;23;20189;-59
2022/03/07 03:13:05;;;;;;;5.32;2.08;;;;;;;;;;6073756;23;20040;-58
2022/03/07 03:15:33;;;;;;;7.15;2.08;;;;;;;;;;6049476;23;20059;-54
2022/03/07 03:18:01;;;;;;;4.38;2.05;;;;;;;;;;6070846;23;20090;-54
2022/03/07 03:20:28;;;;;;;6.05;2.30;;;;;;;;;;6074622;23;20036;-53
2022/03/07 03:22:54;;;;;;;5.82;2.40;;;;;;;;;;6067824;23;20040;-58
2022/03/07 03:25:22;;;;;;;5.32;2.20;;;;;;;;;;6063092;23;20121;-57
2022/03/07 03:27:51;;;;;;;5.53;2.08;;;;;;;;;;6063330;23;20051;-51
2022/03/07 03:30:17;;;;;;;4.22;2.13;;;;;;;;;;6081394;23;20032;-51
2022/03/07 03:32:44;;;;;;;7.60;2.47;;;;;;;;;;6061093;23;20127;-57
2022/03/07 03:35:13;;;;;;;6.00;2.03;;;;;;;;;;6064747;23;20048;-51
2022/03/07 03:37:40;;;;;;;4.72;2.25;;;;;;;;;;6059172;23;20062;-58
2022/03/07 03:40:08;;;;;;;5.20;2.28;;;;;;;;;;6111646;23;20043;-57
2022/03/07 03:42:35;;;;;;;5.07;2.47;;;;;;;;;;6109669;23;20043;-50
2022/03/07 03:45:02;;;;;;;9.50;2.67;;;;;;;;;;6086488;23;20089;-53
2022/03/07 03:47:28;;;;;;;7.78;2.30;;;;;;;;;;6088641;23;20068;-58
2022/03/07 03:49:54;;;;;;;6.32;2.55;;;;;;;;;;6060870;23;20036;-53
2022/03/07 03:52:23;;;;;;;6.05;1.95;;;;;;;;;;6063549;23;20090;-56
2022/03/07 03:54:55;;;;;;;5.65;2.25;;;;;;;;;;6059921;23;20123;-50
2022/03/07 03:57:22;;;;;;;7.07;2.70;;;;;;;;;;6062198;23;20028;-50
2022/03/07 03:59:48;;;;;;;5.55;2.60;;;;;;;;;;6059234;23;20028;-49
2022/03/07 04:02:15;;;;;;;5.60;2.00;;;;;;;;;;6063926;23;20119;-55
2022/03/07 04:04:42;;;;;;;10.27;2.30;;;;;;;;;;6060882;23;20040;-61
2022/03/07 04:07:10;;;;;;;5.10;2.03;;;;;;;;;;6113986;23;20039;-52
2022/03/07 04:09:38;;;;;;;7.07;2.60;;;;;;;;;;6058705;23;20107;-57
2022/03/07 04:12:05;;;;;;;6.93;2.80;;;;;;;;;;6062962;23;20037;-55
2022/03/07 04:14:32;;;;;;;10.13;2.70;;;;;;;;;;6058044;23;20054;-53
2022/03/07 04:16:59;;;;;;;8.80;2.88;;;;;;;;;;6062210;23;20052;-56
2022/03/07 04:19:25;;;;;;;6.85;2.38;;;;;;;;;;6105606;23;20036;-60
2022/03/07 04:21:52;;;;;;;7.38;2.63;;;;;;;;;;6061819;23;20043;-60
2022/03/07 04:24:20;;;;;;;4.68;1.83;;;;;;;;;;6033743;23;20047;-58
2022/03/07 04:26:48;;;;;;;8.30;2.45;;;;;;;;;;6066358;23;20086;-54
2022/03/07 04:29:14;;;;;;;6.57;2.50;;;;;;;;;;6085678;23;20089;-59
2022/03/07 04:31:42;;;;;;;5.10;2.03;;;;;;;;;;6057859;23;20287;-55
2022/03/07 04:34:09;;;;;;;9.77;2.80;;;;;;;;;;6061605;23;20036;-55
2022/03/07 04:36:36;;;;;;;11.35;2.70;;;;;;;;;;6105257;23;20032;-56
2022/03/07 04:39:05;;;;;;;5.78;1.98;;;;;;;;;;6061251;23;20042;-59
2022/03/07 04:41:31;;;;;;;;;;;;;;;;;;6072321;23;20040;-60
2022/03/07 04:44:00;;;;;;;5.68;2.28;;;;;;;;;;6085527;23;20014;-61
2022/03/07 04:46:26;;;;;;;5.97;2.40;;;;;;;;;;6068897;23;20060;-57
2022/03/07 04:48:53;;;;;;;4.38;1.92;;;;;;;;;;6061040;23;20103;-58
2022/03/07 04:51:19;;;;;;;6.93;2.28;;;;;;;;;;6065243;23;20036;-58
2022/03/07 04:53:46;;;;;;;5.05;2.40;;;;;;;;;;6076454;23;20041;-60
2022/03/07 04:56:13;;;;;;;4.70;2.20;;;;;;;;;;6043444;23;20086;-54
2022/03/07 04:58:40;;;;;;;5.05;2.30;;;;;;;;;;6086412;23;20040;-58
2022/03/07 05:01:09;;;;;;;7.82;3.15;;;;;;;;;;6075733;23;20078;-58
2022/03/07 05:03:36;;;;;;;10.57;3.53;;;;;;;;;;6086076;23;20044;-61
2022/03/07 05:06:02;;;;;;;8.60;3.30;;;;;;;;;;6080951;23;20032;-56
2022/03/07 05:08:29;;;;;;;7.63;3.05;;;;;;;;;;6064187;23;20028;-58
2022/03/07 05:10:55;;;;;;;9.18;2.80;;;;;;;;;;6110092;23;20036;-61
2022/03/07 05:13:22;;;;;;;7.35;2.72;;;;;;;;;;6069285;23;20059;-58
2022/03/07 05:15:49;;;;;;;8.32;2.90;;;;;;;;;;6110018;23;20032;-58
2022/03/07 05:18:17;;;;;;;5.15;2.55;;;;;;;;;;6056818;23;20043;-57
2022/03/07 05:20:43;;;;;;;6.68;3.03;;;;;;;;;;6059872;23;20059;-56
2022/03/07 05:23:10;;;;;;;5.43;2.63;;;;;;;;;;6057562;23;20086;-57
2022/03/07 05:25:36;;;;;;;6.80;2.85;;;;;;;;;;6061603;23;20039;-57
2022/03/07 05:28:03;;;;;;;9.75;3.13;;;;;;;;;;6057752;23;20119;-58
2022/03/07 05:30:29;;;;;;;6.63;2.47;;;;;;;;;;6110553;23;20066;-61
2022/03/07 05:32:56;;;;;;;10.63;2.92;;;;;;;;;;6109003;23;20052;-62
2022/03/07 05:35:31;;;;;;;9.20;3.17;;;;;;;;;;6088882;23;20053;-61
2022/03/07 05:37:58;;;;;;;7.15;3.03;;;;;;;;;;6074086;23;20044;-57
2022/03/07 05:40:24;;;;;;;6.80;2.75;;;;;;;;;;6061076;23;20040;-58
2022/03/07 05:42:51;;;;;;;7.53;3.05;;;;;;;;;;6056891;23;20101;-59
2022/03/07 05:45:18;;;;;;;11.40;3.17;;;;;;;;;;6061698;23;20051;-59
2022/03/07 05:47:44;;;;;;;12.68;3.65;;;;;;;;;;6087623;23;20079;-57
2022/03/07 05:50:13;;;;;;;7.57;3.03;;;;;;;;;;6061029;23;20117;-56
2022/03/07 05:52:41;;;;;;;11.27;3.22;;;;;;;;;;6106048;23;20046;-58
2022/03/07 05:55:08;;;;;;;6.70;2.92;;;;;;;;;;6082894;23;20131;-56
2022/03/07 05:57:35;;;;;;;8.52;3.20;;;;;;;;;;6085536;23;20048;-61
2022/03/07 06:00:02;;;;;;;8.98;3.10;;;;;;;;;;6047978;23;20033;-61
2022/03/07 06:02:28;;;;;;;9.73;3.80;;;;;;;;;;6060103;23;20036;-58
2022/03/07 06:04:55;;;;;;;5.90;2.63;;;;;;;;;;6054237;23;20056;-59
2022/03/07 06:07:22;;;;;;;5.72;2.70;;;;;;;;;;6080189;23;20044;-54
2022/03/07 06:09:50;;;;;;;8.00;3.25;;;;;;;;;;6053170;23;20071;-60
2022/03/07 06:12:16;;;;;;;9.30;3.55;;;;;;;;;;6056751;23;20048;-60
2022/03/07 06:14:44;;;;;;;8.27;3.63;;;;;;;;;;6054160;23;20044;-55
2022/03/07 06:17:10;;;;;;;9.40;3.05;;;;;;;;;;6055767;23;20036;-59
2022/03/07 06:19:37;;;;;;;8.75;3.30;;;;;;;;;;6053413;23;20040;-61
2022/03/07 06:22:03;;;;;;;9.10;3.53;;;;;;;;;;6058399;23;20048;-60
2022/03/07 06:24:30;;;;;;;10.30;3.60;;;;;;;;;;6054263;23;20033;-60
2022/03/07 06:26:58;;;;;;;8.45;3.65;;;;;;;;;;6055765;23;20051;-60
2022/03/07 06:29:25;;;;;;;9.57;3.23;;;;;;;;;;6055393;23;20060;-58
2022/03/07 06:31:52;;;;;;;7.30;3.30;;;;;;;;;;6082602;23;20295;-57
2022/03/07 06:34:18;;;;;;;14.40;4.03;;;;;;;;;;6053164;23;20044;-61
2022/03/07 06:36:45;;;;;;;11.60;3.58;;;;;;;;;;6080442;23;20040;-58
2022/03/07 06:39:12;;;;;;;8.23;3.67;;;;;;;;;;6057265;23;20059;-61
2022/03/07 06:41:38;;;;;;;11.45;3.33;;;;;;;;;;6052929;23;20123;-61
2022/03/07 06:44:07;;;;;;;5.50;2.42;;;;;;;;;;6055482;23;20071;-61
2022/03/07 06:46:34;;;;;;;7.97;3.28;;;;;;;;;;6074857;23;20044;-61
2022/03/07 06:49:02;;;;;;;9.48;3.65;;;;;;;;;;6080738;23;20041;-59
2022/03/07 06:51:29;;;;;;;8.38;3.25;;;;;;;;;;6051865;23;20029;-57
2022/03/07 06:53:56;;;;;;;12.82;3.65;;;;;;;;;;6056611;23;20048;-61
2022/03/07 06:56:22;;;;;;;8.35;3.45;;;;;;;;;;6075946;23;20049;-59
2022/03/07 06:58:50;;;;;;;10.20;4.22;;;;;;;;;;6081121;23;20112;-61
2022/03/07 07:01:18;;;;;;;11.77;3.53;;;;;;;;;;6079371;23;20060;-61
2022/03/07 07:03:49;;;;;;;9.30;3.85;;;;;;;;;;6091888;23;20338;-58
2022/03/07 07:06:16;;;;;;;15.07;3.58;;;;;;;;;;6052701;23;20051;-57
2022/03/07 07:08:42;;;;;;;8.15;3.53;;;;;;;;;;6055710;23;20115;-53
2022/03/07 07:11:09;;;;;;;6.80;3.25;;;;;;;;;;6051367;23;20115;-56
2022/03/07 07:13:35;;;;;;;12.95;3.83;;;;;;;;;;6055940;23;20064;-55
2022/03/07 07:16:02;;;;;;;9.10;3.88;;;;;;;;;;6051499;23;20033;-56
2022/03/07 07:18:29;;;;;;;8.85;4.00;;;;;;;;;;6055471;23;20102;-54
2022/03/07 07:20:56;;;;;;;10.20;3.50;;;;;;;;;;6055107;23;20049;-59
2022/03/07 07:23:23;;;;;;;12.68;4.20;;;;;;;;;;6051644;23;20032;-56
2022/03/07 07:25:51;;;;;;;10.20;3.75;;;;;;;;;;6055835;23;20115;-58
2022/03/07 07:28:19;;;;;;;8.77;3.72;;;;;;;;;;6051198;23;20032;-56
2022/03/07 07:30:46;;;;;;;9.93;3.57;;;;;;;;;;6055965;23;20040;-56
2022/03/07 07:33:13;;;;;;;7.43;3.63;;;;;;;;;;6052141;23;20380;-60
2022/03/07 07:35:43;;;;;;;7.28;2.90;;;;;;;;;;6056825;23;20037;-60
2022/03/07 07:38:10;;;;;;;8.07;3.28;;;;;;;;;;6039134;23;20044;-54
2022/03/07 07:40:36;;;;;;;7.70;3.70;;;;;;;;;;6055706;23;20036;-59
2022/03/07 07:43:03;;;;;;;10.75;3.88;;;;;;;;;;6051582;23;20036;-58
2022/03/07 07:45:31;;;;;;;10.82;4.25;;;;;;;;;;6056207;23;20036;-57
2022/03/07 07:47:59;;;;;;;7.97;2.97;;;;;;;;;;6050848;23;20033;-57
2022/03/07 07:50:26;;;;;;;8.20;3.77;;;;;;;;;;6055186;23;20040;-55
2022/03/07 07:52:54;;;;;;;9.63;3.60;;;;;;;;;;6050988;23;20314;-54
2022/03/07 07:55:21;;;;;;;;;;;;;;;;;;6057509;23;20094;-60
2022/03/07 07:57:47;;;;;;;8.63;3.30;;;;;;;;;;6051848;23;20014;-58
2022/03/07 08:00:19;;;;;;;12.32;3.90;;;;;;;;;;6053340;23;20059;-57
2022/03/07 08:02:46;;;;;;;6.85;3.25;;;;;;;;;;6054854;23;20064;-58
2022/03/07 08:05:19;;;;;;;10.20;4.45;;;;;;;;;;6031772;23;20054;-57
2022/03/07 08:07:46;;;;;;;10.65;3.97;;;;;;;;;;6032377;23;20055;-58
2022/03/07 08:10:15;;;;;;;5.72;2.80;;;;;;;;;;6055347;23;20086;-61
2022/03/07 08:12:41;;;;;;;7.68;3.42;;;;;;;;;;6096137;23;20039;-61
2022/03/07 08:15:11;;;;;;;10.05;3.90;;;;;;;;;;6074225;23;20043;-57
2022/03/07 08:17:38;;;;;;;10.15;3.88;;;;;;;;;;6085500;23;20112;-56
2022/03/07 08:20:05;;;;;;;6.43;2.78;;;;;;;;;;6064151;23;20047;-59
2022/03/07 08:22:32;;;;;;;9.27;3.58;;;;;;;;;;6063128;23;20059;-61
2022/03/07 08:25:00;;;;;;;10.05;3.78;;;;;;;;;;6107823;23;20107;-62
2022/03/07 08:27:27;;;;;;;10.57;4.22;;;;;;;;;;6064801;23;20055;-61
2022/03/07 08:29:54;;;;;;;9.33;3.90;;;;;;;;;;6064492;23;20040;-59
2022/03/07 08:32:20;;;;;;;15.90;4.22;;;;;;;;;;6110080;23;20086;-59
2022/03/07 08:34:48;;;;;;;9.68;3.80;;;;;;;;;;6105393;23;20032;-60
2022/03/07 08:37:14;;;;;;;9.77;4.43;;;;;;;;;;6086094;23;20044;-54
2022/03/07 08:39:41;;;;;;;14.40;4.93;;;;;;;;;;6078966;23;20041;-58
2022/03/07 08:42:11;;;;;;;10.15;4.22;;;;;;;;;;6061346;23;20097;-59
2022/03/07 08:44:39;;;;;;;7.10;3.03;;;;;;;;;;6056663;23;20068;-58
2022/03/07 08:47:05;;;;;;;6.90;2.92;;;;;;;;;;6061194;23;20040;-58
2022/03/07 08:49:32;;;;;;;9.55;3.72;;;;;;;;;;6057632;23;20040;-56
2022/03/07 08:51:58;;;;;;;9.55;3.35;;;;;;;;;;6060858;23;20064;-62
2022/03/07 08:54:25;;;;;;;5.75;2.50;;;;;;;;;;6108863;23;20056;-54
2022/03/07 08:56:51;;;;;;;10.27;2.63;;;;;;;;;;6077144;23;20040;-54
2022/03/07 08:59:18;;;;;;;7.55;3.17;;;;;;;;;;6086065;23;20074;-59
2022/03/07 09:01:46;;;;;;;5.72;2.83;;;;;;;;;;6063520;23;20126;-51
2022/03/07 09:04:13;;;;;;;5.37;2.20;;;;;;;;;;6060495;23;20094;-59
2022/03/07 09:06:39;;;;;;;1.98;1.05;;;;;;;;;;6105457;23;20283;-58
2022/03/07 09:09:06;;;;;;;4.93;1.95;;;;;;;;;;6084964;23;20055;-60
2022/03/07 09:11:32;;;;;;;8.70;2.42;;;;;;;;;;6071828;23;20094;-60
2022/03/07 09:13:59;;;;;;;3.67;1.83;;;;;;;;;;6061563;23;20043;-61
2022/03/07 09:16:26;;;;;;;5.35;2.03;;;;;;;;;;6050344;23;20090;-58
2022/03/07 09:18:54;;;;;;;6.70;1.85;;;;;;;;;;6085567;23;20036;-60
2022/03/07 09:21:20;;;;;;;5.30;2.13;;;;;;;;;;6070269;23;20040;-59
2022/03/07 09:23:47;;;;;;;7.32;2.88;;;;;;;;;;6061807;23;20318;-61
2022/03/07 09:26:14;;;;;;;4.00;1.92;;;;;;;;;;6104655;23;20044;-61
2022/03/07 09:28:40;;;;;;;6.63;2.25;;;;;;;;;;6108945;23;20043;-54
2022/03/07 09:31:07;;;;;;;3.45;1.80;;;;;;;;;;6058951;23;20059;-61
2022/03/07 09:33:34;;;;;;;5.10;2.10;;;;;;;;;;6108288;23;20043;-57
2022/03/07 09:36:02;;;;;;;9.90;3.13;;;;;;;;;;6085600;23;20036;-55
2022/03/07 09:38:28;;;;;;;3.65;1.90;;;;;;;;;;6059067;23;20044;-57
2022/03/07 09:40:55;;;;;;;6.60;1.70;;;;;;;;;;6061254;23;20040;-57
2022/03/07 09:43:22;;;;;;;5.40;2.25;;;;;;;;;;6057620;23;20050;-50
2022/03/07 09:45:49;;;;;;;4.85;1.85;;;;;;;;;;6109912;23;20042;-55
2022/03/07 09:48:17;;;;;;;5.05;2.13;;;;;;;;;;6105874;23;20123;-54
2022/03/07 09:50:44;;;;;;;9.02;2.42;;;;;;;;;;6087163;23;20101;-51
2022/03/07 09:53:16;;;;;;;6.20;2.38;;;;;;;;;;6074309;23;20089;-61
2022/03/07 09:55:43;;;;;;;8.55;1.33;;;;;;;;;;6062904;23;20045;-52
2022/03/07 09:58:10;;;;;;;5.95;2.47;;;;;;;;;;6057332;23;20098;-55
2022/03/07 10:00:40;;;;;;;6.00;2.05;;;;;;;;;;6061012;23;20037;-55
2022/03/07 10:03:09;;;;;;;8.48;2.45;;;;;;;;;;6056515;23;20040;-59
2022/03/07 10:05:37;;;;;;;9.95;2.08;;;;;;;;;;6060933;23;20075;-58
2022/03/07 10:08:04;;;;;;;5.83;2.57;;;;;;;;;;6056448;23;20047;-55
2022/03/07 10:10:33;;;;;;;5.95;2.72;;;;;;;;;;6084380;23;20040;-56
2022/03/07 10:13:03;;;;;;;5.78;2.28;;;;;;;;;;6074276;23;20094;-59
2022/03/07 10:15:30;;;;;;;7.45;2.47;;;;;;;;;;6108954;23;20036;-57
2022/03/07 10:17:57;;;;;;;4.88;2.20;;;;;;;;;;6058225;23;20055;-54
2022/03/07 10:20:24;;;;;;;6.18;2.10;;;;;;;;;;6106526;23;20040;-57
2022/03/07 10:22:52;;;;;;;6.63;2.42;;;;;;;;;;6085135;23;20036;-60
2022/03/07 10:25:22;;;;;;;6.00;2.43;;;;;;;;;;6059080;23;20032;-55
2022/03/07 10:27:50;;;;;;;5.25;2.00;;;;;;;;;;6060860;23;20354;-51
2022/03/07 10:30:18;;;;;;;4.68;2.03;;;;;;;;;;6056446;23;20115;-56
2022/03/07 10:32:51;;;;;;;4.22;1.83;;;;;;;;;;6060970;23;20047;-53
2022/03/07 10:35:25;;;;;;;3.33;1.63;;;;;;;;;;6065075;23;20098;-51
2022/03/07 10:37:56;;;;;;;7.47;2.22;;;;;;;;;;6060862;23;20090;-56
2022/03/07 10:40:23;;;;;;;7.18;1.90;;;;;;;;;;6055587;23;20044;-57
2022/03/07 10:42:52;;;;;;;4.25;2.10;;;;;;;;;;6109011;23;20039;-53
2022/03/07 10:45:18;;;;;;;;;;;;;;;;;;6067806;23;20036;-51
2022/03/07 10:47:50;;;;;;;4.68;1.85;;;;;;;;;;6086027;23;19924;-59
2022/03/07 10:50:19;;;;;;;6.88;1.85;;;;;;;;;;6079306;23;20039;-54
2022/03/07 10:52:46;;;;;;;5.45;1.77;;;;;;;;;;6084324;23;20036;-54
2022/03/07 10:55:15;;;;;;;4.13;1.75;;;;;;;;;;6080228;23;20042;-56
2022/03/07 10:57:42;;;;;;;5.63;2.38;;;;;;;;;;6062659;23;20044;-56
2022/03/07 11:00:17;;;;;;;6.53;2.17;;;;;;;;;;6056944;23;20036;-53
2022/03/07 11:02:45;;;;;;;3.42;1.25;;;;;;;;;;6072778;23;20131;-53
2022/03/07 11:05:12;;;;;;;6.60;2.53;;;;;;;;;;6079228;23;20039;-56
2022/03/07 11:07:40;;;;;;;5.93;2.45;;;;;;;;;;6072790;23;20044;-55
2022/03/07 11:10:10;;;;;;;3.08;1.25;;;;;;;;;;6037181;23;20044;-55
2022/03/07 11:12:39;;;;;;;6.93;2.42;;;;;;;;;;6109943;23;20098;-58
2022/03/07 11:15:09;;;;;;;5.40;2.22;;;;;;;;;;6061450;23;20040;-51
2022/03/07 11:17:40;;;;;;;7.32;2.28;;;;;;;;;;6060838;23;20040;-53
2022/03/07 11:20:11;;;;;;;2.88;1.30;;;;;;;;;;6111952;23;20032;-58
2022/03/07 11:22:37;;;;;;;7.65;2.00;;;;;;;;;;6066600;23;20040;-62
2022/03/07 11:25:05;;;;;;;4.82;2.08;;;;;;;;;;6063382;23;20063;-58
2022/03/07 11:27:32;;;;;;;5.47;2.20;;;;;;;;;;6104630;23;20032;-54
2022/03/07 11:29:59;;;;;;;8.50;2.38;;;;;;;;;;6059569;23;20040;-53
2022/03/07 11:32:25;;;;;;;7.28;2.38;;;;;;;;;;6070682;23;20036;-57
2022/03/07 11:34:54;;;;;;;6.15;2.63;;;;;;;;;;6084157;23;20040;-55
2022/03/07 11:37:22;;;;;;;7.60;2.88;;;;;;;;;;6068710;23;20040;-59
2022/03/07 11:39:49;;;;;;;6.60;2.38;;;;;;;;;;6060090;23;20107;-60
2022/03/07 11:42:16;;;;;;;4.07;1.88;;;;;;;;;;6055651;23;20036;-58
2022/03/07 11:44:43;;;;;;;5.05;2.55;;;;;;;;;;6108981;23;20105;-56
2022/03/07 11:47:16;;;;;;;7.00;2.35;;;;;;;;;;6058619;23;20082;-56
2022/03/07 11:49:43;;;;;;;3.97;2.03;;;;;;;;;;6084123;23;20036;-56
2022/03/07 11:52:16;;;;;;;4.95;2.22;;;;;;;;;;6079650;23;20032;-58
2022/03/07 11:54:52;;;;;;;7.25;2.15;;;;;;;;;;6084340;23;20102;-53
2022/03/07 11:57:19;;;;;;;5.32;1.75;;;;;;;;;;6079395;23;20036;-56
2022/03/07 11:59:46;;;;;;;5.47;2.38;;;;;;;;;;6085261;23;20063;-54
2022/03/07 12:02:12;;;;;;;3.75;1.33;;;;;;;;;;6081148;23;20042;-59
2022/03/07 12:04:40;;;;;;;4.65;2.13;;;;;;;;;;6084638;23;20127;-55
2022/03/07 12:07:09;;;;;;;5.00;1.95;;;;;;;;;;6085295;23;20154;-61
2022/03/07 12:09:38;;;;;;;3.70;1.48;;;;;;;;;;6082508;23;20050;-61
2022/03/07 12:12:05;;;;;;;6.65;3.13;;;;;;;;;;6085616;23;20040;-61
2022/03/07 12:14:33;;;;;;;5.53;2.67;;;;;;;;;;6057996;23;20036;-55
2022/03/07 12:17:01;;;;;;;6.20;3.00;;;;;;;;;;6110780;23;20044;-59
2022/03/07 12:19:28;;;;;;;13.27;2.90;;;;;;;;;;6074493;23;20043;-59
2022/03/07 12:21:55;;;;;;;7.30;2.07;;;;;;;;;;6073907;23;20046;-56
2022/03/07 12:24:23;;;;;;;5.60;2.53;;;;;;;;;;6067786;23;20036;-56
2022/03/07 12:26:52;;;;;;;7.75;2.67;;;;;;;;;;6108990;23;20043;-55
2022/03/07 12:29:20;;;;;;;7.43;3.15;;;;;;;;;;6104325;23;20038;-60
2022/03/07 12:31:51;;;;;;;7.25;3.30;;;;;;;;;;6049923;23;20040;-60
2022/03/07 12:34:21;;;;;;;7.32;2.78;;;;;;;;;;6058435;23;20044;-59
2022/03/07 12:36:56;;;;;;;10.48;3.45;;;;;;;;;;6061170;23;20119;-60
2022/03/07 12:39:23;;;;;;;3.13;1.60;;;;;;;;;;6063449;23;20093;-57
2022/03/07 12:41:51;;;;;;;6.57;3.20;;;;;;;;;;6086115;23;20058;-59
2022/03/07 12:44:24;;;;;;;8.18;3.30;;;;;;;;;;6080128;23;20039;-61
2022/03/07 12:46:50;;;;;;;8.32;3.40;;;;;;;;;;6086325;23;20036;-58
2022/03/07 12:49:17;;;;;;;5.72;2.80;;;;;;;;;;6107121;23;20036;-62
2022/03/07 12:51:43;;;;;;;6.15;3.03;;;;;;;;;;6088975;23;20046;-61
2022/03/07 12:54:13;;;;;;;10.52;3.70;;;;;;;;;;6063644;23;20048;-63
2022/03/07 12:56:41;;;;;;;6.47;3.00;;;;;;;;;;6064497;23;20150;-62
2022/03/07 12:59:09;;;;;;;10.43;3.17;;;;;;;;;;6110053;23;20036;-56
2022/03/07 13:01:38;;;;;;;9.13;3.92;;;;;;;;;;6107410;23;20062;-59
2022/03/07 13:04:06;;;;;;;10.10;3.50;;;;;;;;;;6085088;23;20068;-59
2022/03/07 13:06:36;;;;;;;8.20;3.67;;;;;;;;;;6048628;23;20036;-54
2022/03/07 13:09:05;;;;;;;7.40;3.90;;;;;;;;;;6061312;23;20032;-62
2022/03/07 13:11:33;;;;;;;7.95;3.13;;;;;;;;;;6105412;23;20039;-59
2022/03/07 13:14:00;;;;;;;5.78;3.00;;;;;;;;;;6066784;23;20054;-56
2022/03/07 13:16:29;;;;;;;6.95;3.28;;;;;;;;;;6069876;23;20032;-58
2022/03/07 13:19:03;;;;;;;6.55;3.05;;;;;;;;;;6081701;23;20040;-60
2022/03/07 13:21:32;;;;;;;7.20;3.20;;;;;;;;;;6069318;23;20044;-58
2022/03/07 13:23:59;;;;;;;7.60;3.42;;;;;;;;;;6083610;23;20094;-55
2022/03/07 13:26:27;;;;;;;7.35;2.97;;;;;;;;;;6104069;23;20048;-59
2022/03/07 13:29:05;;;;;;;8.40;3.60;;;;;;;;;;6060403;23;20040;-56
2022/03/07 13:31:42;;;;;;;5.70;2.57;;;;;;;;;;6055688;23;20028;-54
2022/03/07 13:34:09;;;;;;;6.95;2.90;;;;;;;;;;6060703;23;20079;-59
2022/03/07 13:36:41;;;;;;;7.68;3.08;;;;;;;;;;6063483;23;20098;-56
2022/03/07 13:39:21;;;;;;;10.85;3.40;;;;;;;;;;6084573;23;20044;-62
2022/03/07 13:41:49;;;;;;;9.35;3.28;;;;;;;;;;6105024;23;20115;-56
2022/03/07 13:44:17;;;;;;;4.97;2.38;;;;;;;;;;6061636;23;20066;-57
2022/03/07 13:46:55;;;;;;;7.22;3.00;;;;;;;;;;6058825;23;20063;-57
2022/03/07 13:49:23;;;;;;;6.65;3.20;;;;;;;;;;6085483;23;20052;-61
2022/03/07 13:51:50;;;;;;;8.63;3.00;;;;;;;;;;6080318;23;20044;-54
2022/03/07 13:54:19;;;;;;;7.93;3.03;;;;;;;;;;6086620;23;20063;-51
2022/03/07 13:56:46;;;;;;;6.72;2.97;;;;;;;;;;6082514;23;20044;-56
2022/03/07 13:59:13;;;;;;;6.60;3.00;;;;;;;;;;6077173;23;20056;-58
2022/03/07 14:01:39;;;;;;;8.10;2.50;;;;;;;;;;6057939;23;20121;-57
2022/03/07 14:04:15;;;;;;;6.10;2.85;;;;;;;;;;6108540;23;20067;-57
2022/03/07 14:06:44;;;;;;;7.10;3.15;;;;;;;;;;6076662;23;20105;-63
2022/03/07 14:09:12;;;;;;;6.25;2.72;;;;;;;;;;6061633;23;20040;-58
2022/03/07 14:11:38;;;;;;;5.07;2.53;;;;;;;;;;6110166;23;20036;-56
2022/03/07 14:14:16;;;;;;;6.18;2.92;;;;;;;;;;6057175;23;20070;-59
2022/03/07 14:16:42;;;;;;;5.20;2.30;;;;;;;;;;6087965;23;20039;-57
2022/03/07 14:19:09;;;;;;;7.05;2.67;;;;;;;;;;6058641;23;20090;-57
2022/03/07 14:21:37;;;;;;;7.32;3.25;;;;;;;;;;6111824;23;20117;-60
2022/03/07 14:24:05;;;;;;;4.75;2.10;;;;;;;;;;6059762;23;20032;-59
2022/03/07 14:26:31;;;;;;;7.38;2.95;;;;;;;;;;6063963;23;20090;-57
2022/03/07 14:29:03;;;;;;;7.60;3.60;;;;;;;;;;6109000;23;20036;-58
2022/03/07 14:31:30;;;;;;;8.68;3.80;;;;;;;;;;6064425;23;20067;-60
2022/03/07 14:33:56;;;;;;;6.63;2.65;;;;;;;;;;6062793;23;20089;-61
2022/03/07 14:36:23;;;;;;;6.22;2.78;;;;;;;;;;6085117;23;20040;-60
2022/03/07 14:38:51;;;;;;;7.63;2.80;;;;;;;;;;6075380;23;20040;-58
2022/03/07 14:41:18;;;;;;;6.50;3.40;;;;;;;;;;6061234;23;20040;-58
2022/03/07 14:43:44;;;;;;;6.43;2.72;;;;;;;;;;6056614;23;20309;-59
2022/03/07 14:46:11;;;;;;;8.93;3.72;;;;;;;;;;6077136;23;20118;-60